Time;durP1;ratioP1;P1;durP2;ratioP2;P2;SDS_P1;SDS_P2;PMS_P1;PMS_P2;Temp;Humidity;BMP_temperature;BMP_pressure;BME280_temperature;BME280_humidity;BME280_pressure;Samples;Min_cycle;Max_cycle;Signal;HPM_P1;HPM_P2
2021/12/15 00:01:59;;;;;;;53.73;32.40;;;10.50;99.90;;;;;;5015449;28;20941;-49
2021/12/15 00:04:26;;;;;;;54.90;32.37;;;10.10;99.90;;;;;;5015380;28;20523;-51
2021/12/15 00:06:53;;;;;;;63.03;36.10;;;10.30;99.90;;;;;;5015859;28;20782;-48
2021/12/15 00:09:20;;;;;;;57.90;33.30;;;10.40;99.90;;;;;;5015012;28;20402;-48
2021/12/15 00:11:47;;;;;;;52.83;32.13;;;10.30;99.90;;;;;;5015644;28;20441;-49
2021/12/15 00:14:18;;;;;;;52.57;34.80;;;9.70;99.90;;;;;;5015242;28;20449;-49
2021/12/15 00:16:46;;;;;;;54.60;34.73;;;10.80;99.90;;;;;;5015490;28;20495;-48
2021/12/15 00:19:13;;;;;;;51.30;32.03;;;10.40;99.90;;;;;;5014850;28;20439;-50
2021/12/15 00:21:40;;;;;;;53.43;33.80;;;10.10;99.90;;;;;;5015396;28;20437;-49
2021/12/15 00:24:08;;;;;;;57.70;33.90;;;10.50;99.90;;;;;;5015223;28;20946;-49
2021/12/15 00:26:36;;;;;;;55.93;34.90;;;10.20;99.90;;;;;;5015183;28;20482;-50
2021/12/15 00:29:05;;;;;;;47.43;30.70;;;10.00;99.90;;;;;;5014825;28;20428;-49
2021/12/15 00:31:33;;;;;;;50.60;31.57;;;10.30;99.90;;;;;;5015127;28;20939;-50
2021/12/15 00:34:00;;;;;;;51.00;32.43;;;10.30;99.90;;;;;;5013788;28;20448;-50
2021/12/15 00:36:26;;;;;;;54.57;33.97;;;10.30;99.90;;;;;;5014719;28;20542;-48
2021/12/15 00:38:53;;;;;;;57.70;35.53;;;10.40;99.90;;;;;;5013176;28;20453;-50
2021/12/15 00:41:20;;;;;;;53.23;32.50;;;10.70;99.90;;;;;;5014947;28;20435;-49
2021/12/15 00:43:47;;;;;;;46.43;30.20;;;10.30;99.90;;;;;;5018729;28;20951;-49
2021/12/15 00:46:14;;;;;;;53.37;31.83;;;10.40;99.90;;;;;;5014186;28;20862;-50
2021/12/15 00:48:42;;;;;;;56.10;32.57;;;10.30;99.90;;;;;;5014414;28;20468;-49
2021/12/15 00:51:09;;;;;;;48.10;31.37;;;10.40;99.90;;;;;;5013363;28;20492;-49
2021/12/15 00:53:36;;;;;;;53.53;33.40;;;10.40;99.90;;;;;;5015050;28;20429;-50
2021/12/15 00:56:04;;;;;;;49.80;31.60;;;10.80;99.90;;;;;;5012941;28;20484;-49
2021/12/15 00:58:30;;;;;;;48.57;29.83;;;10.30;99.90;;;;;;5013049;28;20953;-48
2021/12/15 01:00:59;;;;;;;50.60;31.50;;;10.30;99.90;;;;;;5013236;28;20449;-49
2021/12/15 01:03:26;;;;;;;48.07;30.83;;;10.00;99.90;;;;;;5014552;28;20802;-49
2021/12/15 01:05:59;;;;;;;51.60;32.53;;;10.40;99.90;;;;;;5014270;28;20484;-49
2021/12/15 01:08:29;;;;;;;48.70;30.03;;;9.90;99.90;;;;;;5013437;28;20451;-49
2021/12/15 01:11:07;;;;;;;51.07;31.67;;;9.80;99.90;;;;;;5014628;28;20939;-49
2021/12/15 01:21:55;;;;;;;52.47;30.30;;;10.20;99.90;;;;;;5012995;28;20812;-48
2021/12/15 01:24:22;;;;;;;51.83;31.23;;;10.30;99.90;;;;;;5014245;28;20440;-49
2021/12/15 01:26:49;;;;;;;53.07;30.83;;;10.30;99.90;;;;;;5014239;28;20457;-49
2021/12/15 01:29:17;;;;;;;53.03;31.77;;;10.50;99.90;;;;;;5012486;28;20430;-51
2021/12/15 01:31:43;;;;;;;54.50;31.70;;;10.00;99.90;;;;;;5014328;28;20426;-49
2021/12/15 01:34:10;;;;;;;50.23;31.27;;;10.40;99.90;;;;;;5012631;28;20815;-51
2021/12/15 01:36:37;;;;;;;53.27;31.53;;;10.40;99.90;;;;;;5012533;28;20518;-49
2021/12/15 01:39:05;;;;;;;50.13;29.50;;;10.20;99.90;;;;;;5012348;28;20449;-49
2021/12/15 01:41:33;;;;;;;51.90;31.03;;;10.20;99.90;;;;;;5014136;28;20946;-49
2021/12/15 01:46:58;;;;;;;56.03;31.27;;;10.30;99.90;;;;;;5012594;28;20975;-49
2021/12/15 01:49:33;;;;;;;55.43;32.90;;;10.20;99.90;;;;;;5013497;28;20440;-49
2021/12/15 01:52:03;;;;;;;53.90;32.07;;;10.30;99.90;;;;;;5012402;28;20451;-49
2021/12/15 01:54:33;;;;;;;50.47;29.10;;;10.00;99.90;;;;;;5013755;28;20436;-49
2021/12/15 01:56:59;;;;;;;49.00;29.37;;;10.20;99.90;;;;;;5012947;28;20601;-52
2021/12/15 01:59:29;;;;;;;53.20;30.50;;;10.30;99.90;;;;;;5011951;28;20548;-52
2021/12/15 02:01:56;;;;;;;53.30;31.90;;;10.30;99.90;;;;;;5013157;28;20452;-51
2021/12/15 02:04:22;;;;;;;58.97;30.93;;;10.30;99.90;;;;;;5011199;28;20452;-51
2021/12/15 02:06:50;;;;;;;51.23;32.07;;;10.40;99.90;;;;;;4992600;28;20472;-52
2021/12/15 02:09:39;;;;;;;52.70;31.13;;;10.50;99.90;;;;;;4993786;28;20436;-52
2021/12/15 02:12:08;;;;;;;46.00;28.70;;;10.40;99.90;;;;;;4992506;28;20468;-51
2021/12/15 02:14:35;;;;;;;50.83;30.07;;;10.30;99.90;;;;;;4993717;28;20434;-52
2021/12/15 02:17:01;;;;;;;43.90;28.23;;;10.40;99.90;;;;;;4992335;28;20490;-51
2021/12/15 02:19:28;;;;;;;46.47;28.30;;;10.20;99.90;;;;;;4992287;28;20458;-52
2021/12/15 02:21:58;;;;;;;53.77;30.47;;;10.40;99.90;;;;;;4991723;28;20462;-50
2021/12/15 02:24:26;;;;;;;52.63;30.40;;;10.30;99.90;;;;;;4992959;28;20441;-52
2021/12/15 02:26:58;;;;;;;48.80;30.30;;;9.90;99.90;;;;;;4992449;28;20524;-51
2021/12/15 02:29:26;;;;;;;47.40;30.27;;;10.20;99.90;;;;;;4992497;28;20500;-51
2021/12/15 02:32:06;;;;;;;45.00;27.60;;;10.20;99.90;;;;;;4993397;28;20567;-52
2021/12/15 02:34:55;;;;;;;45.20;27.67;;;10.10;99.90;;;;;;4993526;28;20448;-52
2021/12/15 02:37:22;;;;;;;43.17;25.93;;;10.60;99.90;;;;;;4993374;28;20893;-51
2021/12/15 02:39:53;;;;;;;43.77;29.20;;;10.60;99.90;;;;;;4993129;28;20464;-52
2021/12/15 02:42:22;;;;;;;44.83;28.43;;;10.20;99.90;;;;;;4991917;28;20892;-52
2021/12/15 02:44:49;;;;;;;44.47;27.40;;;10.20;99.90;;;;;;4993353;28;20492;-51
2021/12/15 02:47:20;;;;;;;50.13;28.60;;;9.90;99.90;;;;;;4993531;28;20802;-52
2021/12/15 02:49:47;;;;;;;46.40;27.30;;;10.20;99.90;;;;;;4992924;28;20433;-51
2021/12/15 02:52:14;;;;;;;37.17;25.33;;;10.30;99.90;;;;;;4992911;28;20445;-51
2021/12/15 02:54:42;;;;;;;44.23;25.53;;;10.20;99.90;;;;;;4993738;28;20437;-52
2021/12/15 02:57:11;;;;;;;41.43;26.27;;;10.20;99.90;;;;;;4995490;28;20484;-51
2021/12/15 02:59:49;;;;;;;43.57;25.03;;;10.30;99.90;;;;;;4992463;28;20483;-51
2021/12/15 03:02:36;;;;;;;40.17;25.20;;;10.40;99.90;;;;;;4993008;28;20438;-51
2021/12/15 03:05:08;;;;;;;42.93;25.40;;;10.30;99.90;;;;;;5001380;28;20466;-50
2021/12/15 03:07:41;;;;;;;39.27;24.77;;;10.50;99.90;;;;;;5012334;28;20437;-50
2021/12/15 03:15:38;;;;;;;36.60;23.60;;;10.40;99.90;;;;;;5012097;28;20458;-51
2021/12/15 03:18:09;;;;;;;38.47;24.23;;;10.10;99.90;;;;;;5011744;28;20487;-51
2021/12/15 03:20:39;;;;;;;37.60;24.13;;;10.30;99.90;;;;;;5012417;28;20429;-51
2021/12/15 03:23:08;;;;;;;39.00;23.37;;;10.30;99.90;;;;;;5012272;28;20926;-51
2021/12/15 03:25:36;;;;;;;37.43;25.23;;;10.60;99.90;;;;;;5014115;28;20461;-52
2021/12/15 03:33:43;;;;;;;40.23;25.33;;;10.40;99.90;;;;;;5012178;28;20424;-51
2021/12/15 03:36:22;;;;;;;40.50;25.17;;;10.40;99.90;;;;;;5011793;28;20424;-52
2021/12/15 03:38:48;;;;;;;38.97;25.47;;;10.30;99.90;;;;;;5011700;28;20535;-51
2021/12/15 03:41:16;;;;;;;40.00;25.33;;;9.90;99.90;;;;;;5011905;28;20437;-51
2021/12/15 03:43:43;;;;;;;40.57;24.80;;;10.30;99.90;;;;;;5012184;28;20426;-50
2021/12/15 03:46:14;;;;;;;39.23;25.20;;;10.20;99.90;;;;;;5011809;28;20456;-51
2021/12/15 03:48:44;;;;;;;36.70;24.60;;;10.50;99.90;;;;;;5011638;28;20407;-52
2021/12/15 03:51:13;;;;;;;46.07;28.17;;;10.50;99.90;;;;;;5011762;28;20520;-52
2021/12/15 03:53:41;;;;;;;39.33;25.10;;;10.30;99.90;;;;;;5010589;28;20456;-52
2021/12/15 03:56:09;;;;;;;44.03;26.03;;;10.30;99.90;;;;;;5011686;28;20475;-50
2021/12/15 03:58:37;;;;;;;37.50;24.10;;;10.40;99.90;;;;;;5011328;28;20440;-50
2021/12/15 04:01:08;;;;;;;39.90;26.07;;;10.30;99.90;;;;;;5011558;28;20445;-50
2021/12/15 04:03:38;;;;;;;41.60;26.57;;;10.60;99.90;;;;;;5012009;28;20438;-51
2021/12/15 04:06:07;;;;;;;42.03;25.50;;;9.90;99.90;;;;;;5011437;28;20816;-51
2021/12/15 04:08:35;;;;;;;39.27;25.20;;;10.30;99.90;;;;;;5011163;28;20412;-50
2021/12/15 04:11:05;;;;;;;40.63;27.00;;;9.90;99.90;;;;;;5011626;28;20441;-50
2021/12/15 04:13:32;;;;;;;40.97;26.50;;;10.10;99.90;;;;;;5011481;28;20432;-52
2021/12/15 04:16:06;;;;;;;37.60;25.53;;;10.00;99.90;;;;;;5011328;28;20951;-51
2021/12/15 04:18:34;;;;;;;38.60;23.77;;;10.20;99.90;;;;;;5011214;28;20480;-51
2021/12/15 04:21:01;;;;;;;39.83;25.43;;;9.80;99.90;;;;;;5011604;28;20766;-50
2021/12/15 04:23:27;;;;;;;42.90;26.63;;;10.30;99.90;;;;;;5011395;28;20806;-52
2021/12/15 04:25:56;;;;;;;40.90;24.90;;;10.50;99.90;;;;;;5011471;28;20449;-51
2021/12/15 04:28:25;;;;;;;41.93;25.83;;;10.30;99.90;;;;;;5011026;28;20446;-52
2021/12/15 04:30:54;;;;;;;40.67;25.43;;;10.30;99.90;;;;;;5011832;28;20874;-52
2021/12/15 04:33:25;;;;;;;41.97;25.33;;;10.30;99.90;;;;;;5011574;28;20797;-52
2021/12/15 04:35:54;;;;;;;41.33;25.27;;;10.30;99.90;;;;;;5011116;28;20973;-51
2021/12/15 04:38:22;;;;;;;40.47;24.47;;;10.20;99.90;;;;;;5010986;28;20484;-51
2021/12/15 04:40:49;;;;;;;40.70;24.63;;;10.30;99.90;;;;;;5011438;28;21022;-51
2021/12/15 04:43:16;;;;;;;42.53;24.70;;;10.60;99.90;;;;;;5011085;28;20445;-53
2021/12/15 04:45:42;;;;;;;37.20;25.17;;;10.30;99.90;;;;;;5018044;28;20434;-51
2021/12/15 04:48:09;;;;;;;37.67;25.37;;;9.90;99.90;;;;;;5014672;28;20813;-51
2021/12/15 04:50:38;;;;;;;37.37;25.13;;;10.30;99.90;;;;;;5015160;28;20523;-52
2021/12/15 04:53:07;;;;;;;35.10;24.57;;;10.20;99.90;;;;;;5014517;28;20418;-52
2021/12/15 04:55:37;;;;;;;38.47;24.83;;;10.00;99.90;;;;;;5014355;28;20472;-51
2021/12/15 04:58:05;;;;;;;34.07;23.43;;;10.30;99.90;;;;;;5014302;28;20480;-51
2021/12/15 05:00:37;;;;;;;38.87;24.47;;;10.20;99.90;;;;;;5014442;28;20436;-52
2021/12/15 05:03:06;;;;;;;36.17;24.37;;;9.90;99.90;;;;;;5014457;28;20448;-50
2021/12/15 05:05:34;;;;;;;35.60;20.73;;;9.80;99.90;;;;;;5014043;28;20464;-51
2021/12/15 05:08:03;;;;;;;31.93;22.30;;;10.20;99.90;;;;;;5013775;28;20445;-51
2021/12/15 05:10:30;;;;;;;32.87;21.93;;;10.40;99.90;;;;;;5014186;28;20437;-52
2021/12/15 05:12:57;;;;;;;35.30;23.67;;;10.10;99.90;;;;;;5014334;28;20427;-50
2021/12/15 05:15:24;;;;;;;34.47;22.43;;;10.30;99.90;;;;;;5013907;28;20442;-51
2021/12/15 05:17:51;;;;;;;34.73;23.07;;;10.30;99.90;;;;;;5013500;28;21075;-52
2021/12/15 05:20:17;;;;;;;33.77;21.97;;;10.30;99.90;;;;;;5014249;28;20552;-51
2021/12/15 05:22:44;;;;;;;31.90;21.70;;;10.30;99.90;;;;;;5013834;28;20447;-51
2021/12/15 05:25:12;;;;;;;32.50;21.90;;;10.70;99.90;;;;;;5013749;28;20461;-51
2021/12/15 05:27:40;;;;;;;33.73;23.33;;;10.30;99.90;;;;;;5013499;28;20429;-52
2021/12/15 05:30:11;;;;;;;31.20;22.63;;;10.30;99.90;;;;;;5013468;28;20429;-52
2021/12/15 05:32:38;;;;;;;31.90;22.30;;;10.30;99.90;;;;;;5013744;28;20437;-50
2021/12/15 05:35:06;;;;;;;32.07;20.67;;;10.40;99.90;;;;;;5013749;28;20453;-51
2021/12/15 05:37:33;;;;;;;38.30;22.90;;;10.50;99.90;;;;;;5013624;28;20583;-52
2021/12/15 05:40:00;;;;;;;32.80;22.93;;;10.20;99.90;;;;;;5013879;28;20972;-53
2021/12/15 05:42:28;;;;;;;33.10;23.07;;;10.20;99.90;;;;;;5013656;28;20434;-52
2021/12/15 05:44:55;;;;;;;37.70;24.13;;;10.70;99.90;;;;;;5013565;28;20456;-52
2021/12/15 05:47:23;;;;;;;32.40;22.30;;;10.20;99.90;;;;;;5013096;28;20434;-50
2021/12/15 05:49:51;;;;;;;33.10;21.53;;;10.30;99.90;;;;;;5013184;28;20802;-52
2021/12/15 05:52:18;;;;;;;35.43;23.93;;;10.00;99.90;;;;;;5013621;28;20432;-52
2021/12/15 05:54:44;;;;;;;33.20;24.00;;;10.30;99.90;;;;;;5013376;28;20441;-51
2021/12/15 05:57:11;;;;;;;33.67;22.20;;;10.30;99.90;;;;;;5013207;28;20477;-51
2021/12/15 05:59:40;;;;;;;35.73;24.10;;;10.20;99.90;;;;;;5012862;28;20433;-52
2021/12/15 06:02:09;;;;;;;31.87;22.60;;;10.10;99.90;;;;;;5013054;28;20440;-52
2021/12/15 06:04:36;;;;;;;37.33;22.77;;;10.30;99.90;;;;;;5013412;28;20527;-52
2021/12/15 06:07:04;;;;;;;29.97;21.17;;;10.00;99.90;;;;;;5014563;28;20451;-51
2021/12/15 06:09:31;;;;;;;36.67;24.37;;;10.50;99.90;;;;;;5012914;28;20437;-51
2021/12/15 06:11:58;;;;;;;37.97;24.10;;;10.70;99.90;;;;;;5013129;28;20432;-51
2021/12/15 06:14:27;;;;;;;35.30;25.40;;;10.30;99.90;;;;;;5012784;28;20466;-51
2021/12/15 06:16:58;;;;;;;35.27;22.80;;;10.50;99.90;;;;;;5012458;28;20460;-52
2021/12/15 06:19:26;;;;;;;37.50;24.20;;;10.60;99.90;;;;;;5012315;28;20444;-51
2021/12/15 06:21:52;;;;;;;32.70;23.17;;;10.30;99.90;;;;;;5012413;28;20444;-51
2021/12/15 06:24:19;;;;;;;37.50;25.10;;;10.20;99.90;;;;;;5012436;28;20433;-51
2021/12/15 06:26:46;;;;;;;34.97;23.33;;;10.00;99.90;;;;;;5012512;28;20538;-51
2021/12/15 06:29:12;;;;;;;40.37;24.10;;;9.90;99.90;;;;;;5011932;28;20428;-51
2021/12/15 06:31:40;;;;;;;38.83;25.33;;;10.40;99.90;;;;;;5012241;28;20909;-51
2021/12/15 06:34:08;;;;;;;38.10;25.57;;;10.40;99.90;;;;;;5011692;28;20473;-52
2021/12/15 06:36:35;;;;;;;39.90;23.47;;;10.40;99.90;;;;;;5012092;28;20456;-51
2021/12/15 06:39:05;;;;;;;34.80;23.60;;;10.00;99.90;;;;;;5011582;28;20985;-52
2021/12/15 06:41:32;;;;;;;36.07;24.67;;;10.40;99.90;;;;;;5012301;28;20560;-50
2021/12/15 06:43:59;;;;;;;39.17;24.70;;;10.30;99.90;;;;;;5011974;28;20441;-52
2021/12/15 06:46:51;;;;;;;35.73;24.23;;;10.70;99.90;;;;;;5012181;28;20461;-52
2021/12/15 06:58:10;;;;;;;34.90;22.33;;;10.40;99.90;;;;;;5012329;28;20511;-52
2021/12/15 07:00:23;;;;;;;34.63;23.50;;;9.90;99.90;;;;;;5011746;28;20523;-52
2021/12/15 07:02:49;;;;;;;35.77;23.50;;;10.30;99.90;;;;;;5011371;28;20429;-51
2021/12/15 07:05:18;;;;;;;36.90;24.97;;;10.40;99.90;;;;;;5011829;28;20475;-53
2021/12/15 07:07:47;;;;;;;38.90;26.67;;;9.80;99.90;;;;;;5011149;28;20410;-52
2021/12/15 07:10:17;;;;;;;35.83;23.47;;;10.50;99.90;;;;;;5011606;28;20432;-52
2021/12/15 07:12:44;;;;;;;32.67;24.00;;;10.40;99.90;;;;;;5011865;28;20437;-52
2021/12/15 07:15:12;;;;;;;32.67;23.60;;;10.00;99.90;;;;;;5011690;28;20459;-52
2021/12/15 07:17:40;;;;;;;33.90;22.10;;;10.10;99.90;;;;;;5011201;28;20933;-51
2021/12/15 07:20:30;;;;;;;29.67;21.47;;;10.30;99.90;;;;;;5011352;28;20441;-52
2021/12/15 07:23:00;;;;;;;35.17;22.70;;;10.40;99.90;;;;;;5011672;28;20524;-51
2021/12/15 07:25:27;;;;;;;37.47;25.07;;;10.10;99.90;;;;;;5011737;28;20551;-51
2021/12/15 07:27:55;;;;;;;29.77;21.57;;;10.70;99.90;;;;;;5012829;28;20429;-52
2021/12/15 07:30:21;;;;;;;28.90;22.10;;;10.60;99.90;;;;;;5011500;28;20437;-51
2021/12/15 07:32:49;;;;;;;33.67;25.20;;;10.50;99.90;;;;;;5011481;28;20437;-52
2021/12/15 07:35:17;;;;;;;31.63;23.30;;;10.50;99.90;;;;;;5011221;28;20876;-51
2021/12/15 07:37:44;;;;;;;30.83;22.37;;;10.40;99.90;;;;;;5010577;28;20981;-51
2021/12/15 07:40:19;;;;;;;34.67;21.57;;;10.40;99.90;;;;;;5010863;28;20462;-51
2021/12/15 07:43:05;;;;;;;25.17;19.87;;;10.40;99.90;;;;;;5011558;28;20472;-53
2021/12/15 07:45:35;;;;;;;32.60;21.53;;;10.40;99.90;;;;;;5011142;28;20511;-53
2021/12/15 07:48:04;;;;;;;27.67;20.60;;;10.50;99.90;;;;;;5010773;28;20433;-51
2021/12/15 07:50:32;;;;;;;31.93;24.37;;;10.50;99.90;;;;;;5010904;28;20460;-51
2021/12/15 07:53:00;;;;;;;28.70;19.90;;;10.30;99.90;;;;;;5010900;28;20437;-51
2021/12/15 07:55:28;;;;;;;29.30;21.47;;;10.30;99.90;;;;;;5009910;28;20612;-52
2021/12/15 07:57:55;;;;;;;29.07;20.40;;;10.50;99.90;;;;;;5010846;28;20476;-51
2021/12/15 08:00:24;;;;;;;27.40;21.60;;;10.70;99.90;;;;;;5010851;28;20546;-51
2021/12/15 08:02:51;;;;;;;29.97;22.33;;;10.80;99.90;;;;;;5011461;28;20963;-52
2021/12/15 08:05:18;;;;;;;28.70;20.80;;;10.60;99.90;;;;;;5012088;28;20465;-52
2021/12/15 08:07:45;;;;;;;27.50;20.03;;;10.60;99.90;;;;;;5011533;28;20436;-52
2021/12/15 08:10:13;;;;;;;30.90;22.17;;;10.60;99.90;;;;;;5012022;28;20805;-52
2021/12/15 08:12:43;;;;;;;30.90;20.73;;;10.20;99.90;;;;;;5011875;28;20473;-52
2021/12/15 08:15:11;;;;;;;31.03;24.83;;;10.70;99.90;;;;;;5011464;28;20965;-52
2021/12/15 08:17:39;;;;;;;27.50;20.53;;;10.80;99.90;;;;;;5011011;28;20440;-51
2021/12/15 08:20:09;;;;;;;28.47;20.70;;;10.80;99.90;;;;;;5012809;28;20463;-52
2021/12/15 08:22:37;;;;;;;28.33;19.97;;;10.80;99.90;;;;;;5015063;28;20523;-51
2021/12/15 08:25:05;;;;;;;26.87;20.37;;;10.40;99.90;;;;;;5015046;28;20459;-52
2021/12/15 08:27:32;;;;;;;26.47;19.77;;;10.90;99.90;;;;;;5014914;28;20445;-51
2021/12/15 08:30:00;;;;;;;28.70;19.00;;;10.60;99.90;;;;;;5013360;28;20948;-51
2021/12/15 08:32:27;;;;;;;25.63;18.53;;;10.50;99.90;;;;;;5014643;28;20544;-52
2021/12/15 08:34:54;;;;;;;26.47;20.20;;;10.40;99.90;;;;;;5014853;28;20475;-53
2021/12/15 08:37:21;;;;;;;27.43;20.00;;;10.80;99.90;;;;;;5014557;28;20441;-53
2021/12/15 08:39:47;;;;;;;23.63;18.57;;;10.80;99.90;;;;;;5014476;28;20527;-52
2021/12/15 08:42:15;;;;;;;19.97;16.00;;;10.80;99.90;;;;;;5014714;28;20519;-51
2021/12/15 08:44:41;;;;;;;25.43;17.67;;;10.60;99.90;;;;;;5014607;28;20658;-53
2021/12/15 08:47:10;;;;;;;24.60;19.00;;;10.70;99.90;;;;;;5014614;28;20457;-52
2021/12/15 08:49:37;;;;;;;28.50;18.43;;;10.50;99.90;;;;;;5014477;28;20919;-52
2021/12/15 08:52:06;;;;;;;25.03;18.40;;;10.50;99.90;;;;;;5014523;28;20802;-52
2021/12/15 08:54:34;;;;;;;27.30;18.40;;;11.00;99.90;;;;;;5014407;28;20729;-52
2021/12/15 08:57:00;;;;;;;26.40;18.73;;;10.80;99.90;;;;;;5014284;28;20430;-52
2021/12/15 08:59:27;;;;;;;27.37;20.30;;;10.60;99.90;;;;;;5013854;28;20451;-52
2021/12/15 09:01:55;;;;;;;28.77;20.80;;;11.20;99.90;;;;;;5014170;28;20444;-51
2021/12/15 09:04:23;;;;;;;22.53;17.03;;;11.00;99.90;;;;;;5014297;28;20468;-51
2021/12/15 09:06:51;;;;;;;25.73;20.27;;;10.40;99.90;;;;;;5014287;28;20467;-51
2021/12/15 09:09:21;;;;;;;29.57;21.50;;;10.80;99.90;;;;;;5013848;28;20433;-51
2021/12/15 09:11:48;;;;;;;29.20;20.40;;;10.70;99.90;;;;;;5014969;28;20434;-51
2021/12/15 09:14:15;;;;;;;28.60;21.60;;;10.90;99.90;;;;;;5013582;28;20492;-50
2021/12/15 09:16:43;;;;;;;28.10;20.03;;;11.00;99.90;;;;;;5013586;28;20961;-51
2021/12/15 09:19:10;;;;;;;27.10;21.03;;;10.90;99.90;;;;;;5013909;28;20839;-52
2021/12/15 09:21:39;;;;;;;25.60;19.50;;;11.20;99.90;;;;;;5013707;28;20952;-52
2021/12/15 09:24:07;;;;;;;29.80;21.90;;;11.30;99.90;;;;;;5014000;28;20470;-51
2021/12/15 09:26:35;;;;;;;28.13;19.83;;;11.10;99.90;;;;;;5014225;28;20454;-52
2021/12/15 09:29:02;;;;;;;26.63;20.33;;;11.10;99.90;;;;;;5013473;28;20430;-52
2021/12/15 09:31:29;;;;;;;31.47;21.77;;;11.40;99.90;;;;;;5013377;28;20445;-52
2021/12/15 09:33:58;;;;;;;24.67;19.40;;;11.40;99.90;;;;;;5013839;28;20442;-53
2021/12/15 09:36:26;;;;;;;25.30;18.53;;;11.20;99.90;;;;;;5013200;28;20454;-52
2021/12/15 09:38:57;;;;;;;28.07;20.30;;;11.20;99.90;;;;;;5012629;28;20987;-53
2021/12/15 09:41:25;;;;;;;25.30;18.40;;;11.20;99.90;;;;;;5013100;28;20441;-52
2021/12/15 09:43:54;;;;;;;27.23;19.57;;;11.20;99.90;;;;;;5013222;28;20438;-52
2021/12/15 09:46:35;;;;;;;22.83;18.40;;;11.20;99.90;;;;;;5012726;28;20461;-52
2021/12/15 09:57:31;;;;;;;27.90;19.70;;;11.20;99.90;;;;;;5013067;28;20491;-52
2021/12/15 10:02:52;;;;;;;28.07;18.77;;;11.60;99.90;;;;;;5013088;28;20435;-51
2021/12/15 10:05:41;;;;;;;30.87;20.27;;;11.20;99.90;;;;;;5012638;28;20912;-52
2021/12/15 10:19:23;;;;;;;26.07;18.97;;;11.20;99.90;;;;;;5012245;28;20472;-54
2021/12/15 10:22:00;;;;;;;31.53;20.27;;;11.20;99.90;;;;;;5012669;28;20516;-53
2021/12/15 10:24:28;;;;;;;31.50;20.03;;;10.70;99.90;;;;;;5012647;28;20430;-51
2021/12/15 10:26:58;;;;;;;38.80;19.77;;;10.90;99.90;;;;;;5012354;28;20460;-52
2021/12/15 10:29:25;;;;;;;33.43;22.37;;;11.20;99.90;;;;;;5011707;28;20433;-52
2021/12/15 10:31:59;;;;;;;30.23;20.53;;;11.70;99.90;;;;;;5012211;28;20438;-52
2021/12/15 10:34:26;;;;;;;27.80;19.97;;;11.20;99.90;;;;;;5011850;28;20444;-52
2021/12/15 10:36:52;;;;;;;27.53;18.80;;;11.00;99.90;;;;;;5011850;28;20458;-54
2021/12/15 10:39:22;;;;;;;27.70;20.13;;;11.40;99.90;;;;;;5011532;28;20476;-52
2021/12/15 10:41:52;;;;;;;28.63;19.90;;;11.70;99.90;;;;;;5011104;28;20442;-53
2021/12/15 10:44:24;;;;;;;29.83;19.20;;;11.60;99.90;;;;;;5012784;28;20446;-53
2021/12/15 10:46:53;;;;;;;29.03;19.10;;;11.20;99.90;;;;;;5011523;28;20465;-52
2021/12/15 10:49:24;;;;;;;30.93;20.27;;;11.40;99.90;;;;;;5011592;28;20430;-52
2021/12/15 10:51:54;;;;;;;28.93;20.17;;;11.30;99.90;;;;;;5012147;28;20444;-52
2021/12/15 10:54:25;;;;;;;32.60;19.70;;;11.20;99.90;;;;;;5011323;28;20481;-53
2021/12/15 10:56:53;;;;;;;25.17;18.73;;;11.10;99.90;;;;;;5010520;28;20486;-51
2021/12/15 10:59:23;;;;;;;27.73;19.80;;;10.90;99.90;;;;;;5011708;28;20816;-52
2021/12/15 11:02:00;;;;;;;28.30;21.00;;;10.60;99.90;;;;;;5011818;28;20458;-52
2021/12/15 11:04:38;;;;;;;26.43;18.63;;;11.10;99.90;;;;;;5011529;28;20552;-54
2021/12/15 11:07:16;;;;;;;25.20;18.40;;;11.20;99.90;;;;;;5011770;28;20441;-51
2021/12/15 11:09:45;;;;;;;26.80;19.10;;;11.20;99.90;;;;;;5011735;28;20433;-52
2021/12/15 11:12:16;;;;;;;25.17;18.60;;;11.30;99.90;;;;;;5011269;28;20947;-51
2021/12/15 11:14:47;;;;;;;24.10;18.07;;;11.20;99.90;;;;;;5011084;28;20442;-52
2021/12/15 11:17:17;;;;;;;23.20;18.17;;;11.60;99.90;;;;;;5011354;28;20506;-52
2021/12/15 11:19:49;;;;;;;23.30;17.20;;;11.20;99.90;;;;;;5011283;28;20938;-52
2021/12/15 11:22:41;;;;;;;24.73;18.70;;;11.40;99.90;;;;;;5011174;28;20521;-50
2021/12/15 11:25:12;;;;;;;22.40;16.73;;;11.30;99.90;;;;;;5011487;28;20473;-52
2021/12/15 11:27:39;;;;;;;23.37;16.40;;;11.20;99.90;;;;;;5011425;28;20434;-52
2021/12/15 11:30:15;;;;;;;25.27;17.23;;;11.10;99.90;;;;;;5013121;28;20457;-50
2021/12/15 11:32:45;;;;;;;23.80;16.83;;;11.30;99.90;;;;;;5011466;28;20441;-52
2021/12/15 11:35:17;;;;;;;19.43;15.03;;;11.40;99.90;;;;;;5010782;28;20479;-52
2021/12/15 11:37:54;;;;;;;23.20;17.87;;;11.40;99.90;;;;;;5010769;28;20445;-51
2021/12/15 11:40:28;;;;;;;21.83;15.77;;;11.40;99.90;;;;;;5011488;28;20488;-51
2021/12/15 11:42:55;;;;;;;21.83;15.80;;;11.50;99.90;;;;;;5011309;28;20452;-52
2021/12/15 11:45:24;;;;;;;22.77;17.50;;;11.10;99.90;;;;;;5009645;28;20573;-52
2021/12/15 11:47:51;;;;;;;21.80;15.23;;;11.50;99.90;;;;;;5010632;28;20441;-52
2021/12/15 11:50:21;;;;;;;22.77;17.20;;;11.60;99.90;;;;;;5010707;28;20477;-53
2021/12/15 11:52:51;;;;;;;21.00;15.70;;;11.80;99.90;;;;;;5011863;28;20481;-52
2021/12/15 11:55:27;;;;;;;21.67;13.97;;;11.50;99.90;;;;;;5015496;28;21025;-53
2021/12/15 11:57:54;;;;;;;16.93;14.17;;;11.60;99.90;;;;;;5014844;28;20484;-52
2021/12/15 12:00:24;;;;;;;23.83;15.27;;;11.20;99.90;;;;;;5015368;28;20786;-52
2021/12/15 12:02:54;;;;;;;20.13;14.20;;;11.20;99.90;;;;;;5013840;28;20455;-53
2021/12/15 12:05:25;;;;;;;20.30;15.20;;;11.70;99.90;;;;;;5015010;28;20493;-52
2021/12/15 12:07:55;;;;;;;19.93;15.20;;;11.70;99.90;;;;;;5015017;28;20543;-52
2021/12/15 12:10:28;;;;;;;19.10;15.07;;;11.80;99.90;;;;;;5015378;28;20529;-51
2021/12/15 12:13:04;;;;;;;18.90;15.60;;;11.80;99.90;;;;;;5015096;28;20440;-52
2021/12/15 12:15:34;;;;;;;18.37;13.67;;;11.80;99.90;;;;;;5015245;28;20465;-52
2021/12/15 12:18:05;;;;;;;17.27;13.73;;;11.50;99.90;;;;;;5014608;28;20449;-53
2021/12/15 12:20:34;;;;;;;18.13;13.10;;;11.70;99.90;;;;;;5014693;28;20485;-52
2021/12/15 12:23:04;;;;;;;29.87;13.70;;;12.10;99.90;;;;;;5014370;28;20470;-52
2021/12/15 12:25:35;;;;;;;18.67;13.43;;;11.30;99.90;;;;;;5014861;28;21056;-54
2021/12/15 12:28:02;;;;;;;19.37;14.00;;;11.80;99.90;;;;;;5014013;28;20441;-52
2021/12/15 12:30:33;;;;;;;14.30;12.07;;;11.90;99.90;;;;;;5013036;28;20953;-54
2021/12/15 12:33:01;;;;;;;15.40;12.00;;;12.10;99.90;;;;;;5014945;28;20441;-54
2021/12/15 12:35:32;;;;;;;16.03;13.33;;;12.00;99.90;;;;;;5015165;28;20830;-52
2021/12/15 12:38:02;;;;;;;22.10;13.40;;;11.50;99.90;;;;;;5014292;28;20538;-53
2021/12/15 12:40:32;;;;;;;16.93;13.30;;;12.00;99.90;;;;;;5014653;28;20486;-52
2021/12/15 12:42:59;;;;;;;20.67;13.83;;;12.00;99.90;;;;;;5014420;28;20433;-52
2021/12/15 12:45:35;;;;;;;16.73;11.73;;;11.80;99.90;;;;;;5015354;28;20472;-60
2021/12/15 12:48:36;;;;;;;21.40;13.60;;;12.00;99.90;;;;;;5014962;28;20438;-52
2021/12/15 12:59:40;;;;;;;17.37;12.00;;;12.00;99.90;;;;;;5013868;28;20498;-50
2021/12/15 13:02:39;;;;;;;14.50;11.80;;;12.00;99.90;;;;;;5013779;28;20439;-52
2021/12/15 13:05:27;;;;;;;16.87;12.43;;;12.00;99.90;;;;;;5012935;28;20562;-52
2021/12/15 13:07:57;;;;;;;16.70;12.67;;;11.70;99.90;;;;;;5013429;28;20451;-53
2021/12/15 13:10:57;;;;;;;16.97;13.20;;;11.90;99.90;;;;;;5013191;28;20443;-52
2021/12/15 13:13:27;;;;;;;16.03;11.77;;;11.80;99.90;;;;;;5013834;28;20435;-53
2021/12/15 13:15:57;;;;;;;17.23;11.80;;;11.80;99.90;;;;;;5014306;28;20585;-59
2021/12/15 13:18:25;;;;;;;18.60;12.40;;;11.80;99.90;;;;;;5013603;28;20484;-52
2021/12/15 13:21:05;;;;;;;22.03;12.50;;;11.80;99.90;;;;;;5013587;28;20560;-52
2021/12/15 13:23:44;;;;;;;18.20;12.77;;;11.50;99.90;;;;;;5013902;28;20473;-49
2021/12/15 13:29:20;;;;;;;14.50;12.80;;;11.80;99.90;;;;;;5013552;28;20782;-50
2021/12/15 13:31:53;;;;;;;23.90;13.80;;;11.80;99.90;;;;;;5013680;28;20508;-50
2021/12/15 13:34:39;;;;;;;17.17;13.37;;;11.80;99.90;;;;;;5013461;28;20438;-49
2021/12/15 13:37:08;;;;;;;17.80;12.27;;;11.90;99.90;;;;;;5012930;28;21030;-49
2021/12/15 13:39:45;;;;;;;17.50;12.47;;;11.90;99.90;;;;;;5011226;28;20474;-49
2021/12/15 13:42:14;;;;;;;14.03;11.77;;;11.90;99.90;;;;;;5013282;28;20595;-49
2021/12/15 13:44:43;;;;;;;14.53;11.80;;;12.00;99.90;;;;;;5013347;28;20527;-48
2021/12/15 13:47:17;;;;;;;18.53;12.60;;;11.70;99.90;;;;;;5014031;28;20501;-49